sensor_id;sensor_type;location;lat;lon;timestamp;P1;durP1;ratioP1;P2;durP2;ratioP2
11090;SDS011;5599;52.210;21.046;2023-02-19T00:01:56;6.90;;;4.77;;
11090;SDS011;5599;52.210;21.046;2023-02-19T00:04:27;8.03;;;4.97;;
11090;SDS011;5599;52.210;21.046;2023-02-19T00:06:56;8.80;;;4.97;;
11090;SDS011;5599;52.210;21.046;2023-02-19T00:09:25;7.73;;;4.60;;
11090;SDS011;5599;52.210;21.046;2023-02-19T00:11:55;7.97;;;5.10;;
11090;SDS011;5599;52.210;21.046;2023-02-19T00:14:24;6.63;;;4.57;;
11090;SDS011;5599;52.210;21.046;2023-02-19T00:16:53;8.73;;;4.67;;
11090;SDS011;5599;52.210;21.046;2023-02-19T00:19:23;6.83;;;4.17;;
11090;SDS011;5599;52.210;21.046;2023-02-19T00:21:54;6.23;;;4.37;;
11090;SDS011;5599;52.210;21.046;2023-02-19T00:24:23;7.57;;;3.83;;
11090;SDS011;5599;52.210;21.046;2023-02-19T00:26:53;8.37;;;4.10;;
11090;SDS011;5599;52.210;21.046;2023-02-19T00:29:22;6.73;;;4.10;;
11090;SDS011;5599;52.210;21.046;2023-02-19T00:31:53;9.10;;;4.10;;
11090;SDS011;5599;52.210;21.046;2023-02-19T00:34:23;7.83;;;3.60;;
11090;SDS011;5599;52.210;21.046;2023-02-19T00:36:54;5.87;;;4.20;;
11090;SDS011;5599;52.210;21.046;2023-02-19T00:39:23;6.97;;;4.03;;
11090;SDS011;5599;52.210;21.046;2023-02-19T00:41:52;5.97;;;3.53;;
11090;SDS011;5599;52.210;21.046;2023-02-19T00:44:22;6.30;;;3.70;;
11090;SDS011;5599;52.210;21.046;2023-02-19T00:46:51;6.13;;;3.77;;
11090;SDS011;5599;52.210;21.046;2023-02-19T00:49:21;6.23;;;3.80;;
11090;SDS011;5599;52.210;21.046;2023-02-19T00:51:51;5.57;;;3.67;;
11090;SDS011;5599;52.210;21.046;2023-02-19T00:54:22;8.20;;;4.00;;
11090;SDS011;5599;52.210;21.046;2023-02-19T00:56:51;8.10;;;3.80;;
11090;SDS011;5599;52.210;21.046;2023-02-19T00:59:21;5.70;;;4.10;;
11090;SDS011;5599;52.210;21.046;2023-02-19T01:01:50;7.37;;;4.30;;
11090;SDS011;5599;52.210;21.046;2023-02-19T01:04:19;7.23;;;4.47;;
11090;SDS011;5599;52.210;21.046;2023-02-19T01:06:49;6.57;;;3.93;;
11090;SDS011;5599;52.210;21.046;2023-02-19T01:09:19;7.13;;;4.10;;
11090;SDS011;5599;52.210;21.046;2023-02-19T01:11:49;5.77;;;3.93;;
11090;SDS011;5599;52.210;21.046;2023-02-19T01:14:18;5.43;;;4.17;;
11090;SDS011;5599;52.210;21.046;2023-02-19T01:16:47;6.93;;;4.23;;
11090;SDS011;5599;52.210;21.046;2023-02-19T01:19:17;7.23;;;4.43;;
11090;SDS011;5599;52.210;21.046;2023-02-19T01:21:46;4.93;;;3.57;;
11090;SDS011;5599;52.210;21.046;2023-02-19T01:24:15;6.90;;;3.20;;
11090;SDS011;5599;52.210;21.046;2023-02-19T01:26:46;5.83;;;3.70;;
11090;SDS011;5599;52.210;21.046;2023-02-19T01:29:15;5.53;;;3.37;;
11090;SDS011;5599;52.210;21.046;2023-02-19T01:31:45;6.80;;;3.77;;
11090;SDS011;5599;52.210;21.046;2023-02-19T01:34:14;5.97;;;3.43;;
11090;SDS011;5599;52.210;21.046;2023-02-19T01:36:44;6.87;;;3.60;;
11090;SDS011;5599;52.210;21.046;2023-02-19T01:39:13;5.40;;;3.80;;
11090;SDS011;5599;52.210;21.046;2023-02-19T01:41:42;6.87;;;3.73;;
11090;SDS011;5599;52.210;21.046;2023-02-19T01:47:19;6.63;;;3.50;;
11090;SDS011;5599;52.210;21.046;2023-02-19T01:49:49;6.77;;;4.20;;
11090;SDS011;5599;52.210;21.046;2023-02-19T01:52:24;8.63;;;3.57;;
11090;SDS011;5599;52.210;21.046;2023-02-19T01:54:57;5.03;;;3.60;;
11090;SDS011;5599;52.210;21.046;2023-02-19T01:57:29;7.07;;;3.87;;
11090;SDS011;5599;52.210;21.046;2023-02-19T02:00:05;8.33;;;4.07;;
11090;SDS011;5599;52.210;21.046;2023-02-19T02:02:42;6.40;;;3.63;;
11090;SDS011;5599;52.210;21.046;2023-02-19T02:05:18;7.03;;;3.50;;
11090;SDS011;5599;52.210;21.046;2023-02-19T02:07:53;6.23;;;3.63;;
11090;SDS011;5599;52.210;21.046;2023-02-19T02:10:39;8.33;;;4.03;;
11090;SDS011;5599;52.210;21.046;2023-02-19T02:13:10;5.83;;;3.53;;
11090;SDS011;5599;52.210;21.046;2023-02-19T02:15:43;9.90;;;3.73;;
11090;SDS011;5599;52.210;21.046;2023-02-19T02:18:25;9.23;;;3.70;;
11090;SDS011;5599;52.210;21.046;2023-02-19T02:21:10;9.17;;;3.53;;
11090;SDS011;5599;52.210;21.046;2023-02-19T02:24:01;8.23;;;3.70;;
11090;SDS011;5599;52.210;21.046;2023-02-19T02:27:00;7.90;;;4.27;;
11090;SDS011;5599;52.210;21.046;2023-02-19T02:29:55;6.40;;;3.93;;
11090;SDS011;5599;52.210;21.046;2023-02-19T02:32:36;7.43;;;4.40;;
11090;SDS011;5599;52.210;21.046;2023-02-19T02:35:21;9.87;;;4.70;;
11090;SDS011;5599;52.210;21.046;2023-02-19T02:37:54;7.00;;;3.70;;
11090;SDS011;5599;52.210;21.046;2023-02-19T02:40:27;7.70;;;4.40;;
11090;SDS011;5599;52.210;21.046;2023-02-19T02:42:58;6.40;;;4.20;;
11090;SDS011;5599;52.210;21.046;2023-02-19T02:45:31;6.63;;;4.03;;
11090;SDS011;5599;52.210;21.046;2023-02-19T02:48:25;7.97;;;4.33;;
11090;SDS011;5599;52.210;21.046;2023-02-19T02:50:58;8.83;;;4.30;;
11090;SDS011;5599;52.210;21.046;2023-02-19T02:53:40;8.30;;;4.10;;
11090;SDS011;5599;52.210;21.046;2023-02-19T02:56:31;6.80;;;3.73;;
11090;SDS011;5599;52.210;21.046;2023-02-19T02:59:04;8.13;;;4.17;;
11090;SDS011;5599;52.210;21.046;2023-02-19T03:01:39;7.07;;;3.80;;
11090;SDS011;5599;52.210;21.046;2023-02-19T03:04:29;11.20;;;4.03;;
11090;SDS011;5599;52.210;21.046;2023-02-19T03:07:25;6.33;;;3.73;;
11090;SDS011;5599;52.210;21.046;2023-02-19T03:09:59;7.10;;;3.50;;
11090;SDS011;5599;52.210;21.046;2023-02-19T03:12:32;9.57;;;3.73;;
11090;SDS011;5599;52.210;21.046;2023-02-19T03:15:20;5.97;;;3.70;;
11090;SDS011;5599;52.210;21.046;2023-02-19T03:18:11;8.03;;;3.53;;
11090;SDS011;5599;52.210;21.046;2023-02-19T03:20:58;6.57;;;3.80;;
11090;SDS011;5599;52.210;21.046;2023-02-19T03:23:30;6.27;;;3.70;;
11090;SDS011;5599;52.210;21.046;2023-02-19T03:26:19;5.50;;;2.83;;
11090;SDS011;5599;52.210;21.046;2023-02-19T03:28:51;6.00;;;3.30;;
11090;SDS011;5599;52.210;21.046;2023-02-19T03:31:41;7.40;;;3.53;;
11090;SDS011;5599;52.210;21.046;2023-02-19T03:34:16;8.93;;;3.80;;
11090;SDS011;5599;52.210;21.046;2023-02-19T03:36:55;4.30;;;2.90;;
11090;SDS011;5599;52.210;21.046;2023-02-19T03:39:29;5.50;;;3.17;;
11090;SDS011;5599;52.210;21.046;2023-02-19T03:42:00;6.50;;;3.40;;
11090;SDS011;5599;52.210;21.046;2023-02-19T03:44:36;4.50;;;3.13;;
11090;SDS011;5599;52.210;21.046;2023-02-19T03:47:12;5.77;;;2.90;;
11090;SDS011;5599;52.210;21.046;2023-02-19T03:49:48;5.63;;;3.30;;
11090;SDS011;5599;52.210;21.046;2023-02-19T03:52:25;5.43;;;3.03;;
11090;SDS011;5599;52.210;21.046;2023-02-19T03:55:05;13.63;;;3.23;;
11090;SDS011;5599;52.210;21.046;2023-02-19T03:57:44;6.33;;;3.00;;
11090;SDS011;5599;52.210;21.046;2023-02-19T04:00:18;8.07;;;2.70;;
11090;SDS011;5599;52.210;21.046;2023-02-19T04:02:52;7.97;;;3.53;;
11090;SDS011;5599;52.210;21.046;2023-02-19T04:05:28;5.73;;;3.00;;
11090;SDS011;5599;52.210;21.046;2023-02-19T04:08:00;6.87;;;3.10;;
11090;SDS011;5599;52.210;21.046;2023-02-19T04:10:41;6.43;;;2.93;;
11090;SDS011;5599;52.210;21.046;2023-02-19T04:13:14;6.17;;;2.67;;
11090;SDS011;5599;52.210;21.046;2023-02-19T04:15:47;4.67;;;2.97;;
11090;SDS011;5599;52.210;21.046;2023-02-19T04:18:20;7.67;;;3.10;;
11090;SDS011;5599;52.210;21.046;2023-02-19T04:20:54;6.47;;;2.90;;
11090;SDS011;5599;52.210;21.046;2023-02-19T04:23:25;5.03;;;2.97;;
11090;SDS011;5599;52.210;21.046;2023-02-19T04:25:58;6.17;;;2.80;;
11090;SDS011;5599;52.210;21.046;2023-02-19T04:28:28;7.33;;;2.80;;
11090;SDS011;5599;52.210;21.046;2023-02-19T04:30:59;9.10;;;3.07;;
11090;SDS011;5599;52.210;21.046;2023-02-19T04:33:29;7.33;;;2.80;;
11090;SDS011;5599;52.210;21.046;2023-02-19T04:36:00;5.67;;;3.30;;
11090;SDS011;5599;52.210;21.046;2023-02-19T04:38:29;5.53;;;2.80;;
11090;SDS011;5599;52.210;21.046;2023-02-19T04:40:58;4.97;;;2.93;;
11090;SDS011;5599;52.210;21.046;2023-02-19T04:43:27;7.93;;;3.50;;
11090;SDS011;5599;52.210;21.046;2023-02-19T04:45:58;6.70;;;3.07;;
11090;SDS011;5599;52.210;21.046;2023-02-19T04:48:28;4.20;;;2.90;;
11090;SDS011;5599;52.210;21.046;2023-02-19T04:50:58;4.77;;;2.87;;
11090;SDS011;5599;52.210;21.046;2023-02-19T04:53:31;5.33;;;2.70;;
11090;SDS011;5599;52.210;21.046;2023-02-19T04:56:05;6.70;;;3.10;;
11090;SDS011;5599;52.210;21.046;2023-02-19T04:58:35;7.13;;;3.07;;
11090;SDS011;5599;52.210;21.046;2023-02-19T05:01:04;8.47;;;2.70;;
11090;SDS011;5599;52.210;21.046;2023-02-19T05:03:36;9.20;;;3.00;;
11090;SDS011;5599;52.210;21.046;2023-02-19T05:06:07;7.90;;;3.03;;
11090;SDS011;5599;52.210;21.046;2023-02-19T05:08:38;7.20;;;3.33;;
11090;SDS011;5599;52.210;21.046;2023-02-19T05:11:09;7.33;;;2.87;;
11090;SDS011;5599;52.210;21.046;2023-02-19T05:13:39;4.97;;;2.83;;
11090;SDS011;5599;52.210;21.046;2023-02-19T05:16:09;7.17;;;3.70;;
11090;SDS011;5599;52.210;21.046;2023-02-19T05:18:42;7.97;;;3.07;;
11090;SDS011;5599;52.210;21.046;2023-02-19T05:21:14;6.43;;;3.50;;
11090;SDS011;5599;52.210;21.046;2023-02-19T05:23:43;5.07;;;3.00;;
11090;SDS011;5599;52.210;21.046;2023-02-19T05:26:13;9.10;;;3.80;;
11090;SDS011;5599;52.210;21.046;2023-02-19T05:28:44;6.50;;;3.63;;
11090;SDS011;5599;52.210;21.046;2023-02-19T05:31:13;5.47;;;3.30;;
11090;SDS011;5599;52.210;21.046;2023-02-19T05:33:43;10.20;;;3.70;;
11090;SDS011;5599;52.210;21.046;2023-02-19T05:36:19;4.70;;;3.27;;
11090;SDS011;5599;52.210;21.046;2023-02-19T05:38:52;9.00;;;4.13;;
11090;SDS011;5599;52.210;21.046;2023-02-19T05:41:23;9.20;;;3.93;;
11090;SDS011;5599;52.210;21.046;2023-02-19T05:43:54;13.33;;;4.57;;
11090;SDS011;5599;52.210;21.046;2023-02-19T05:46:25;6.97;;;4.03;;
11090;SDS011;5599;52.210;21.046;2023-02-19T05:48:56;7.43;;;3.73;;
11090;SDS011;5599;52.210;21.046;2023-02-19T05:51:27;8.63;;;3.93;;
11090;SDS011;5599;52.210;21.046;2023-02-19T05:53:57;6.90;;;3.60;;
11090;SDS011;5599;52.210;21.046;2023-02-19T05:56:29;11.83;;;4.27;;
11090;SDS011;5599;52.210;21.046;2023-02-19T05:59:00;7.63;;;3.93;;
11090;SDS011;5599;52.210;21.046;2023-02-19T06:01:32;8.50;;;4.47;;
11090;SDS011;5599;52.210;21.046;2023-02-19T06:04:02;10.30;;;4.13;;
11090;SDS011;5599;52.210;21.046;2023-02-19T06:06:33;8.53;;;4.83;;
11090;SDS011;5599;52.210;21.046;2023-02-19T06:09:03;9.50;;;4.50;;
11090;SDS011;5599;52.210;21.046;2023-02-19T06:11:33;6.07;;;4.47;;
11090;SDS011;5599;52.210;21.046;2023-02-19T06:14:03;6.33;;;4.30;;
11090;SDS011;5599;52.210;21.046;2023-02-19T06:16:32;9.30;;;4.33;;
11090;SDS011;5599;52.210;21.046;2023-02-19T06:19:02;9.77;;;4.60;;
11090;SDS011;5599;52.210;21.046;2023-02-19T06:21:31;7.27;;;4.60;;
11090;SDS011;5599;52.210;21.046;2023-02-19T06:24:06;7.53;;;4.17;;
11090;SDS011;5599;52.210;21.046;2023-02-19T06:26:36;7.27;;;4.37;;
11090;SDS011;5599;52.210;21.046;2023-02-19T06:29:06;10.70;;;4.50;;
11090;SDS011;5599;52.210;21.046;2023-02-19T06:31:35;9.17;;;4.33;;
11090;SDS011;5599;52.210;21.046;2023-02-19T06:34:04;7.63;;;4.87;;
11090;SDS011;5599;52.210;21.046;2023-02-19T06:36:35;9.77;;;5.07;;
11090;SDS011;5599;52.210;21.046;2023-02-19T06:39:04;7.73;;;4.97;;
11090;SDS011;5599;52.210;21.046;2023-02-19T06:41:34;7.73;;;4.63;;
11090;SDS011;5599;52.210;21.046;2023-02-19T06:44:04;8.70;;;5.17;;
11090;SDS011;5599;52.210;21.046;2023-02-19T06:46:33;7.27;;;4.80;;
11090;SDS011;5599;52.210;21.046;2023-02-19T06:49:03;8.67;;;4.90;;
11090;SDS011;5599;52.210;21.046;2023-02-19T06:51:32;12.27;;;5.53;;
11090;SDS011;5599;52.210;21.046;2023-02-19T06:54:03;9.03;;;4.93;;
11090;SDS011;5599;52.210;21.046;2023-02-19T06:56:33;8.27;;;4.57;;
11090;SDS011;5599;52.210;21.046;2023-02-19T06:59:04;7.97;;;4.50;;
11090;SDS011;5599;52.210;21.046;2023-02-19T07:01:34;8.93;;;4.93;;
11090;SDS011;5599;52.210;21.046;2023-02-19T07:04:04;6.83;;;4.30;;
11090;SDS011;5599;52.210;21.046;2023-02-19T07:06:36;7.47;;;4.83;;
11090;SDS011;5599;52.210;21.046;2023-02-19T07:09:06;8.77;;;4.50;;
11090;SDS011;5599;52.210;21.046;2023-02-19T07:11:37;8.73;;;4.40;;
11090;SDS011;5599;52.210;21.046;2023-02-19T07:14:07;7.83;;;4.50;;
11090;SDS011;5599;52.210;21.046;2023-02-19T07:16:41;9.00;;;4.87;;
11090;SDS011;5599;52.210;21.046;2023-02-19T07:19:13;7.80;;;4.67;;
11090;SDS011;5599;52.210;21.046;2023-02-19T07:21:44;6.03;;;4.00;;
11090;SDS011;5599;52.210;21.046;2023-02-19T07:24:14;7.07;;;4.97;;
11090;SDS011;5599;52.210;21.046;2023-02-19T07:26:43;7.93;;;4.60;;
11090;SDS011;5599;52.210;21.046;2023-02-19T07:29:12;11.43;;;5.40;;
11090;SDS011;5599;52.210;21.046;2023-02-19T07:31:41;12.57;;;5.10;;
11090;SDS011;5599;52.210;21.046;2023-02-19T07:34:11;8.07;;;5.00;;
11090;SDS011;5599;52.210;21.046;2023-02-19T07:36:40;9.17;;;4.77;;
11090;SDS011;5599;52.210;21.046;2023-02-19T07:39:12;7.40;;;4.77;;
11090;SDS011;5599;52.210;21.046;2023-02-19T07:41:42;8.23;;;4.93;;
11090;SDS011;5599;52.210;21.046;2023-02-19T07:44:24;9.83;;;4.90;;
11090;SDS011;5599;52.210;21.046;2023-02-19T07:46:53;7.50;;;4.97;;
11090;SDS011;5599;52.210;21.046;2023-02-19T07:49:23;9.43;;;4.80;;
11090;SDS011;5599;52.210;21.046;2023-02-19T07:51:52;9.27;;;4.77;;
11090;SDS011;5599;52.210;21.046;2023-02-19T07:54:23;6.67;;;4.23;;
11090;SDS011;5599;52.210;21.046;2023-02-19T07:56:52;8.30;;;5.33;;
11090;SDS011;5599;52.210;21.046;2023-02-19T07:59:21;9.53;;;5.20;;
11090;SDS011;5599;52.210;21.046;2023-02-19T08:01:51;9.90;;;5.43;;
11090;SDS011;5599;52.210;21.046;2023-02-19T08:04:37;8.67;;;5.20;;
11090;SDS011;5599;52.210;21.046;2023-02-19T08:07:07;8.70;;;5.03;;
11090;SDS011;5599;52.210;21.046;2023-02-19T08:09:37;7.73;;;4.80;;
11090;SDS011;5599;52.210;21.046;2023-02-19T08:12:07;7.23;;;4.80;;
11090;SDS011;5599;52.210;21.046;2023-02-19T08:14:55;6.80;;;5.10;;
11090;SDS011;5599;52.210;21.046;2023-02-19T08:17:25;7.60;;;5.00;;
11090;SDS011;5599;52.210;21.046;2023-02-19T08:19:56;11.60;;;4.70;;
11090;SDS011;5599;52.210;21.046;2023-02-19T08:22:25;9.10;;;5.13;;
11090;SDS011;5599;52.210;21.046;2023-02-19T08:24:56;13.00;;;5.30;;
11090;SDS011;5599;52.210;21.046;2023-02-19T08:27:25;8.70;;;4.87;;
11090;SDS011;5599;52.210;21.046;2023-02-19T08:29:55;8.00;;;5.13;;
11090;SDS011;5599;52.210;21.046;2023-02-19T08:32:24;9.90;;;5.90;;
11090;SDS011;5599;52.210;21.046;2023-02-19T08:34:53;11.27;;;5.23;;
11090;SDS011;5599;52.210;21.046;2023-02-19T08:37:23;11.33;;;5.53;;
11090;SDS011;5599;52.210;21.046;2023-02-19T08:39:52;8.57;;;4.73;;
11090;SDS011;5599;52.210;21.046;2023-02-19T08:42:23;9.67;;;5.80;;
11090;SDS011;5599;52.210;21.046;2023-02-19T08:44:52;10.67;;;5.53;;
11090;SDS011;5599;52.210;21.046;2023-02-19T08:47:22;9.40;;;5.00;;
11090;SDS011;5599;52.210;21.046;2023-02-19T08:49:51;10.00;;;5.13;;
11090;SDS011;5599;52.210;21.046;2023-02-19T08:52:21;7.07;;;5.33;;
11090;SDS011;5599;52.210;21.046;2023-02-19T08:54:50;10.17;;;5.40;;
11090;SDS011;5599;52.210;21.046;2023-02-19T08:57:20;8.80;;;5.30;;
11090;SDS011;5599;52.210;21.046;2023-02-19T08:59:51;8.47;;;5.43;;
11090;SDS011;5599;52.210;21.046;2023-02-19T09:02:20;10.80;;;5.93;;
11090;SDS011;5599;52.210;21.046;2023-02-19T09:04:50;10.33;;;5.13;;
11090;SDS011;5599;52.210;21.046;2023-02-19T09:07:19;10.13;;;5.90;;
11090;SDS011;5599;52.210;21.046;2023-02-19T09:09:49;6.70;;;4.73;;
11090;SDS011;5599;52.210;21.046;2023-02-19T09:12:18;7.47;;;4.77;;
11090;SDS011;5599;52.210;21.046;2023-02-19T09:14:48;7.73;;;4.90;;
11090;SDS011;5599;52.210;21.046;2023-02-19T09:17:18;11.77;;;5.47;;
11090;SDS011;5599;52.210;21.046;2023-02-19T09:19:48;6.47;;;4.77;;
11090;SDS011;5599;52.210;21.046;2023-02-19T09:22:18;9.10;;;5.20;;
11090;SDS011;5599;52.210;21.046;2023-02-19T09:24:47;8.17;;;4.57;;
11090;SDS011;5599;52.210;21.046;2023-02-19T09:27:17;7.70;;;5.13;;
11090;SDS011;5599;52.210;21.046;2023-02-19T09:29:47;6.90;;;4.00;;
11090;SDS011;5599;52.210;21.046;2023-02-19T09:32:16;8.17;;;4.90;;
11090;SDS011;5599;52.210;21.046;2023-02-19T09:34:48;8.03;;;4.53;;
11090;SDS011;5599;52.210;21.046;2023-02-19T09:37:18;8.00;;;4.67;;
11090;SDS011;5599;52.210;21.046;2023-02-19T09:39:47;6.80;;;3.87;;
11090;SDS011;5599;52.210;21.046;2023-02-19T09:42:17;7.60;;;4.67;;
11090;SDS011;5599;52.210;21.046;2023-02-19T09:44:52;6.70;;;4.70;;
11090;SDS011;5599;52.210;21.046;2023-02-19T09:47:25;8.03;;;4.70;;
11090;SDS011;5599;52.210;21.046;2023-02-19T09:49:58;8.50;;;4.57;;
11090;SDS011;5599;52.210;21.046;2023-02-19T09:52:34;7.87;;;4.47;;
11090;SDS011;5599;52.210;21.046;2023-02-19T09:55:12;10.83;;;5.03;;
11090;SDS011;5599;52.210;21.046;2023-02-19T09:57:44;8.83;;;5.03;;
11090;SDS011;5599;52.210;21.046;2023-02-19T10:00:19;9.13;;;4.93;;
11090;SDS011;5599;52.210;21.046;2023-02-19T10:02:53;5.80;;;4.43;;
11090;SDS011;5599;52.210;21.046;2023-02-19T10:05:31;8.67;;;4.93;;
11090;SDS011;5599;52.210;21.046;2023-02-19T10:08:03;7.97;;;4.47;;
11090;SDS011;5599;52.210;21.046;2023-02-19T10:10:35;8.60;;;4.20;;
11090;SDS011;5599;52.210;21.046;2023-02-19T10:13:10;9.27;;;5.10;;
11090;SDS011;5599;52.210;21.046;2023-02-19T10:15:46;7.67;;;3.93;;
11090;SDS011;5599;52.210;21.046;2023-02-19T10:18:24;7.37;;;4.43;;
11090;SDS011;5599;52.210;21.046;2023-02-19T10:20:57;6.77;;;4.27;;
11090;SDS011;5599;52.210;21.046;2023-02-19T10:23:28;7.10;;;4.63;;
11090;SDS011;5599;52.210;21.046;2023-02-19T10:25:58;10.77;;;5.90;;
11090;SDS011;5599;52.210;21.046;2023-02-19T10:28:30;7.67;;;4.40;;
11090;SDS011;5599;52.210;21.046;2023-02-19T10:31:02;8.53;;;4.87;;
11090;SDS011;5599;52.210;21.046;2023-02-19T10:33:44;6.70;;;3.90;;
11090;SDS011;5599;52.210;21.046;2023-02-19T10:36:24;5.33;;;4.00;;
11090;SDS011;5599;52.210;21.046;2023-02-19T10:38:58;7.30;;;4.57;;
11090;SDS011;5599;52.210;21.046;2023-02-19T10:41:29;7.00;;;4.00;;
11090;SDS011;5599;52.210;21.046;2023-02-19T10:44:00;5.90;;;4.30;;
11090;SDS011;5599;52.210;21.046;2023-02-19T10:46:34;8.70;;;4.17;;
11090;SDS011;5599;52.210;21.046;2023-02-19T10:49:16;6.50;;;3.97;;
11090;SDS011;5599;52.210;21.046;2023-02-19T10:51:51;5.93;;;3.50;;
11090;SDS011;5599;52.210;21.046;2023-02-19T10:54:24;7.60;;;4.20;;
11090;SDS011;5599;52.210;21.046;2023-02-19T10:57:12;6.10;;;3.83;;
11090;SDS011;5599;52.210;21.046;2023-02-19T10:59:52;5.60;;;3.93;;
11090;SDS011;5599;52.210;21.046;2023-02-19T11:02:24;6.83;;;4.07;;
11090;SDS011;5599;52.210;21.046;2023-02-19T11:05:05;6.83;;;4.07;;
11090;SDS011;5599;52.210;21.046;2023-02-19T11:07:47;4.87;;;3.30;;
11090;SDS011;5599;52.210;21.046;2023-02-19T11:10:21;6.70;;;3.90;;
11090;SDS011;5599;52.210;21.046;2023-02-19T11:12:57;7.07;;;3.33;;
11090;SDS011;5599;52.210;21.046;2023-02-19T11:15:30;5.43;;;2.80;;
11090;SDS011;5599;52.210;21.046;2023-02-19T11:18:03;4.63;;;3.30;;
11090;SDS011;5599;52.210;21.046;2023-02-19T11:20:39;5.03;;;3.40;;
11090;SDS011;5599;52.210;21.046;2023-02-19T11:23:17;6.93;;;3.77;;
11090;SDS011;5599;52.210;21.046;2023-02-19T11:25:49;6.03;;;3.27;;
11090;SDS011;5599;52.210;21.046;2023-02-19T11:28:23;8.97;;;4.23;;
11090;SDS011;5599;52.210;21.046;2023-02-19T11:31:11;5.43;;;3.30;;
11090;SDS011;5599;52.210;21.046;2023-02-19T11:33:53;6.77;;;3.47;;
11090;SDS011;5599;52.210;21.046;2023-02-19T11:36:27;5.60;;;3.23;;
11090;SDS011;5599;52.210;21.046;2023-02-19T11:39:15;10.93;;;3.80;;
11090;SDS011;5599;52.210;21.046;2023-02-19T11:42:05;5.70;;;3.17;;
11090;SDS011;5599;52.210;21.046;2023-02-19T11:45:09;6.03;;;3.30;;
11090;SDS011;5599;52.210;21.046;2023-02-19T11:48:03;10.03;;;3.50;;
11090;SDS011;5599;52.210;21.046;2023-02-19T11:50:51;4.57;;;2.80;;
11090;SDS011;5599;52.210;21.046;2023-02-19T11:53:27;8.17;;;3.33;;
11090;SDS011;5599;52.210;21.046;2023-02-19T11:56:06;4.57;;;2.93;;
11090;SDS011;5599;52.210;21.046;2023-02-19T11:58:54;9.10;;;3.27;;
11090;SDS011;5599;52.210;21.046;2023-02-19T12:07:28;5.47;;;2.90;;
11090;SDS011;5599;52.210;21.046;2023-02-19T12:10:21;10.87;;;3.43;;
11090;SDS011;5599;52.210;21.046;2023-02-19T12:12:58;5.63;;;3.10;;
11090;SDS011;5599;52.210;21.046;2023-02-19T12:15:39;6.80;;;3.67;;
11090;SDS011;5599;52.210;21.046;2023-02-19T12:18:22;6.90;;;3.40;;
11090;SDS011;5599;52.210;21.046;2023-02-19T12:21:10;5.00;;;3.07;;
11090;SDS011;5599;52.210;21.046;2023-02-19T12:24:01;3.83;;;2.80;;
11090;SDS011;5599;52.210;21.046;2023-02-19T12:26:58;6.07;;;3.50;;
11090;SDS011;5599;52.210;21.046;2023-02-19T12:29:50;7.50;;;3.23;;
11090;SDS011;5599;52.210;21.046;2023-02-19T12:32:51;5.10;;;3.00;;
11090;SDS011;5599;52.210;21.046;2023-02-19T12:35:50;6.40;;;3.10;;
11090;SDS011;5599;52.210;21.046;2023-02-19T12:38:29;6.27;;;2.90;;
11090;SDS011;5599;52.210;21.046;2023-02-19T12:44:04;5.43;;;2.90;;
11090;SDS011;5599;52.210;21.046;2023-02-19T12:46:41;8.87;;;3.47;;
11090;SDS011;5599;52.210;21.046;2023-02-19T12:49:17;8.13;;;3.17;;
11090;SDS011;5599;52.210;21.046;2023-02-19T12:51:57;5.03;;;3.10;;
11090;SDS011;5599;52.210;21.046;2023-02-19T12:54:32;5.87;;;3.37;;
11090;SDS011;5599;52.210;21.046;2023-02-19T12:57:08;6.33;;;3.27;;
11090;SDS011;5599;52.210;21.046;2023-02-19T12:59:42;6.17;;;2.97;;
11090;SDS011;5599;52.210;21.046;2023-02-19T13:02:17;4.50;;;2.93;;
11090;SDS011;5599;52.210;21.046;2023-02-19T13:04:52;7.83;;;3.10;;
11090;SDS011;5599;52.210;21.046;2023-02-19T13:07:30;9.00;;;4.00;;
11090;SDS011;5599;52.210;21.046;2023-02-19T13:10:14;6.50;;;3.30;;
11090;SDS011;5599;52.210;21.046;2023-02-19T13:12:50;7.67;;;2.80;;
11090;SDS011;5599;52.210;21.046;2023-02-19T13:15:27;4.50;;;2.80;;
11090;SDS011;5599;52.210;21.046;2023-02-19T13:18:01;5.07;;;3.03;;
11090;SDS011;5599;52.210;21.046;2023-02-19T13:20:36;6.77;;;2.73;;
11090;SDS011;5599;52.210;21.046;2023-02-19T13:23:10;4.17;;;2.20;;
11090;SDS011;5599;52.210;21.046;2023-02-19T13:26:10;5.43;;;3.07;;
11090;SDS011;5599;52.210;21.046;2023-02-19T13:28:55;6.83;;;3.17;;
11090;SDS011;5599;52.210;21.046;2023-02-19T13:31:46;4.63;;;2.93;;
11090;SDS011;5599;52.210;21.046;2023-02-19T13:34:30;6.57;;;3.07;;
11090;SDS011;5599;52.210;21.046;2023-02-19T13:37:15;6.53;;;2.97;;
11090;SDS011;5599;52.210;21.046;2023-02-19T13:39:46;6.60;;;3.70;;
11090;SDS011;5599;52.210;21.046;2023-02-19T13:42:23;5.60;;;3.20;;
11090;SDS011;5599;52.210;21.046;2023-02-19T13:44:55;9.03;;;3.33;;
11090;SDS011;5599;52.210;21.046;2023-02-19T13:47:48;7.73;;;2.90;;
11090;SDS011;5599;52.210;21.046;2023-02-19T13:50:31;4.53;;;2.60;;
11090;SDS011;5599;52.210;21.046;2023-02-19T13:53:37;5.03;;;3.23;;
11090;SDS011;5599;52.210;21.046;2023-02-19T13:59:22;7.00;;;3.47;;
11090;SDS011;5599;52.210;21.046;2023-02-19T14:02:12;6.03;;;2.87;;
11090;SDS011;5599;52.210;21.046;2023-02-19T14:05:04;3.93;;;2.67;;
11090;SDS011;5599;52.210;21.046;2023-02-19T14:07:48;4.40;;;2.60;;
11090;SDS011;5599;52.210;21.046;2023-02-19T14:19:43;3.53;;;2.30;;
11090;SDS011;5599;52.210;21.046;2023-02-19T14:25:38;5.53;;;2.70;;
11090;SDS011;5599;52.210;21.046;2023-02-19T14:28:32;6.87;;;2.93;;
11090;SDS011;5599;52.210;21.046;2023-02-19T14:31:09;6.23;;;2.70;;
11090;SDS011;5599;52.210;21.046;2023-02-19T14:34:02;4.43;;;2.73;;
11090;SDS011;5599;52.210;21.046;2023-02-19T14:36:36;5.07;;;2.50;;
11090;SDS011;5599;52.210;21.046;2023-02-19T14:39:13;5.40;;;2.63;;
11090;SDS011;5599;52.210;21.046;2023-02-19T14:41:50;7.97;;;2.53;;
11090;SDS011;5599;52.210;21.046;2023-02-19T14:44:25;6.80;;;2.60;;
11090;SDS011;5599;52.210;21.046;2023-02-19T14:46:59;6.50;;;2.70;;
11090;SDS011;5599;52.210;21.046;2023-02-19T14:49:36;3.60;;;2.50;;
11090;SDS011;5599;52.210;21.046;2023-02-19T14:52:14;3.50;;;2.77;;
11090;SDS011;5599;52.210;21.046;2023-02-19T14:54:52;5.13;;;3.53;;
11090;SDS011;5599;52.210;21.046;2023-02-19T14:57:27;5.83;;;3.10;;
11090;SDS011;5599;52.210;21.046;2023-02-19T15:00:03;4.87;;;2.97;;
11090;SDS011;5599;52.210;21.046;2023-02-19T15:02:51;4.40;;;2.50;;
11090;SDS011;5599;52.210;21.046;2023-02-19T15:05:25;4.57;;;2.40;;
11090;SDS011;5599;52.210;21.046;2023-02-19T15:07:57;7.53;;;3.20;;
11090;SDS011;5599;52.210;21.046;2023-02-19T15:10:31;6.73;;;2.93;;
11090;SDS011;5599;52.210;21.046;2023-02-19T15:13:06;5.50;;;2.87;;
11090;SDS011;5599;52.210;21.046;2023-02-19T15:15:45;6.13;;;2.80;;
11090;SDS011;5599;52.210;21.046;2023-02-19T15:18:18;4.20;;;2.70;;
11090;SDS011;5599;52.210;21.046;2023-02-19T15:20:57;6.87;;;3.00;;
11090;SDS011;5599;52.210;21.046;2023-02-19T15:23:30;3.53;;;2.53;;
11090;SDS011;5599;52.210;21.046;2023-02-19T15:26:04;5.93;;;2.43;;
11090;SDS011;5599;52.210;21.046;2023-02-19T15:28:44;3.53;;;2.23;;
11090;SDS011;5599;52.210;21.046;2023-02-19T15:31:16;4.90;;;2.53;;
11090;SDS011;5599;52.210;21.046;2023-02-19T15:33:49;3.03;;;2.30;;
11090;SDS011;5599;52.210;21.046;2023-02-19T15:36:25;6.07;;;3.60;;
11090;SDS011;5599;52.210;21.046;2023-02-19T15:38:57;5.00;;;2.07;;
11090;SDS011;5599;52.210;21.046;2023-02-19T15:41:31;5.03;;;2.30;;
11090;SDS011;5599;52.210;21.046;2023-02-19T15:44:17;4.10;;;2.33;;
11090;SDS011;5599;52.210;21.046;2023-02-19T15:46:59;3.67;;;2.40;;
11090;SDS011;5599;52.210;21.046;2023-02-19T15:49:37;5.07;;;2.30;;
11090;SDS011;5599;52.210;21.046;2023-02-19T15:52:16;4.37;;;2.47;;
11090;SDS011;5599;52.210;21.046;2023-02-19T15:54:55;4.93;;;2.67;;
11090;SDS011;5599;52.210;21.046;2023-02-19T15:57:31;5.00;;;2.80;;
11090;SDS011;5599;52.210;21.046;2023-02-19T16:00:09;6.10;;;2.50;;